sensor_id;sensor_type;location;lat;lon;timestamp;pressure;altitude;pressure_sealevel;temperature;humidity
21185;BME280;18176;49.502;11.754;2023-05-23T00:02:17;96503.66;;;22.66;50.62
21185;BME280;18176;49.502;11.754;2023-05-23T00:06:19;96501.44;;;22.68;50.40
21185;BME280;18176;49.502;11.754;2023-05-23T00:10:21;96499.53;;;22.60;50.53
21185;BME280;18176;49.502;11.754;2023-05-23T00:14:24;96504.00;;;22.73;50.37
21185;BME280;18176;49.502;11.754;2023-05-23T00:18:24;96508.06;;;22.45;51.01
21185;BME280;18176;49.502;11.754;2023-05-23T00:22:24;96509.00;;;22.41;50.99
21185;BME280;18176;49.502;11.754;2023-05-23T00:26:24;96515.22;;;22.41;51.30
21185;BME280;18176;49.502;11.754;2023-05-23T00:30:30;96530.25;;;22.25;50.47
21185;BME280;18176;49.502;11.754;2023-05-23T00:34:31;96537.06;;;22.22;50.17
21185;BME280;18176;49.502;11.754;2023-05-23T00:38:31;96538.69;;;22.23;50.55
21185;BME280;18176;49.502;11.754;2023-05-23T00:42:31;96547.41;;;22.29;50.81
21185;BME280;18176;49.502;11.754;2023-05-23T00:46:35;96542.69;;;22.43;50.29
21185;BME280;18176;49.502;11.754;2023-05-23T00:50:35;96544.63;;;22.51;50.69
21185;BME280;18176;49.502;11.754;2023-05-23T00:54:36;96540.22;;;22.72;49.71
21185;BME280;18176;49.502;11.754;2023-05-23T00:58:39;96547.88;;;22.87;49.93
21185;BME280;18176;49.502;11.754;2023-05-23T01:02:46;96545.63;;;22.89;49.84
21185;BME280;18176;49.502;11.754;2023-05-23T01:06:47;96555.00;;;22.92;49.82
21185;BME280;18176;49.502;11.754;2023-05-23T01:10:49;96558.03;;;22.90;49.91
21185;BME280;18176;49.502;11.754;2023-05-23T01:15:02;96543.41;;;22.91;49.86
21185;BME280;18176;49.502;11.754;2023-05-23T01:24:24;96553.09;;;22.75;50.87
21185;BME280;18176;49.502;11.754;2023-05-23T01:28:40;96546.03;;;22.49;51.65
21185;BME280;18176;49.502;11.754;2023-05-23T01:32:43;96556.44;;;22.72;51.25
21185;BME280;18176;49.502;11.754;2023-05-23T01:36:44;96563.59;;;22.77;51.15
21185;BME280;18176;49.502;11.754;2023-05-23T01:40:45;96550.06;;;22.68;51.57
21185;BME280;18176;49.502;11.754;2023-05-23T01:44:48;96552.63;;;22.73;51.33
21185;BME280;18176;49.502;11.754;2023-05-23T01:48:49;96562.38;;;22.52;52.49
21185;BME280;18176;49.502;11.754;2023-05-23T01:52:50;96558.59;;;22.53;52.55
21185;BME280;18176;49.502;11.754;2023-05-23T01:56:51;96564.75;;;22.45;52.98
21185;BME280;18176;49.502;11.754;2023-05-23T02:00:54;96562.13;;;22.62;52.39
21185;BME280;18176;49.502;11.754;2023-05-23T02:04:55;96555.47;;;22.68;51.71
21185;BME280;18176;49.502;11.754;2023-05-23T02:08:55;96543.72;;;22.64;51.86
21185;BME280;18176;49.502;11.754;2023-05-23T02:12:56;96551.47;;;22.66;52.48
21185;BME280;18176;49.502;11.754;2023-05-23T02:16:59;96557.53;;;22.80;51.85
21185;BME280;18176;49.502;11.754;2023-05-23T02:21:01;96554.69;;;22.76;51.87
21185;BME280;18176;49.502;11.754;2023-05-23T02:25:01;96553.41;;;22.65;52.15
21185;BME280;18176;49.502;11.754;2023-05-23T02:29:02;96557.88;;;22.78;52.17
21185;BME280;18176;49.502;11.754;2023-05-23T02:33:07;96559.16;;;22.81;51.80
21185;BME280;18176;49.502;11.754;2023-05-23T02:37:08;96535.59;;;22.73;52.03
21185;BME280;18176;49.502;11.754;2023-05-23T02:41:09;96558.03;;;22.90;51.86
21185;BME280;18176;49.502;11.754;2023-05-23T02:45:10;96556.28;;;22.86;52.00
21185;BME280;18176;49.502;11.754;2023-05-23T02:49:13;96554.88;;;22.88;52.14
21185;BME280;18176;49.502;11.754;2023-05-23T02:53:14;96552.13;;;22.80;51.96
21185;BME280;18176;49.502;11.754;2023-05-23T02:57:14;96555.81;;;22.92;52.15
21185;BME280;18176;49.502;11.754;2023-05-23T03:01:15;96559.78;;;22.95;51.85
21185;BME280;18176;49.502;11.754;2023-05-23T03:05:18;96556.91;;;22.83;52.01
21185;BME280;18176;49.502;11.754;2023-05-23T03:09:19;96554.22;;;22.91;51.80
21185;BME280;18176;49.502;11.754;2023-05-23T03:13:20;96554.38;;;22.95;51.68
21185;BME280;18176;49.502;11.754;2023-05-23T03:17:23;96549.91;;;22.82;51.95
21185;BME280;18176;49.502;11.754;2023-05-23T03:21:29;96550.53;;;22.70;52.33
21185;BME280;18176;49.502;11.754;2023-05-23T03:25:29;96556.88;;;22.66;52.44
21185;BME280;18176;49.502;11.754;2023-05-23T03:29:30;96567.31;;;22.59;52.68
21185;BME280;18176;49.502;11.754;2023-05-23T03:33:30;96573.19;;;22.52;53.27
21185;BME280;18176;49.502;11.754;2023-05-23T03:37:33;96567.28;;;22.33;53.46
21185;BME280;18176;49.502;11.754;2023-05-23T03:41:34;96578.56;;;22.35;53.76
21185;BME280;18176;49.502;11.754;2023-05-23T03:45:34;96583.84;;;22.49;53.35
21185;BME280;18176;49.502;11.754;2023-05-23T03:49:41;96577.78;;;22.52;53.66
21185;BME280;18176;49.502;11.754;2023-05-23T03:53:44;96590.19;;;22.53;53.38
21185;BME280;18176;49.502;11.754;2023-05-23T03:57:45;96567.31;;;22.42;53.75
21185;BME280;18176;49.502;11.754;2023-05-23T04:01:47;96560.59;;;22.30;54.06
21185;BME280;18176;49.502;11.754;2023-05-23T04:05:48;96595.72;;;22.39;54.33
21185;BME280;18176;49.502;11.754;2023-05-23T04:09:52;96595.94;;;22.60;53.90
21185;BME280;18176;49.502;11.754;2023-05-23T04:13:52;96601.94;;;22.57;54.36
21185;BME280;18176;49.502;11.754;2023-05-23T04:17:53;96593.03;;;22.48;54.67
21185;BME280;18176;49.502;11.754;2023-05-23T04:21:55;96577.63;;;22.48;54.03
21185;BME280;18176;49.502;11.754;2023-05-23T04:25:59;96587.41;;;22.75;53.97
21185;BME280;18176;49.502;11.754;2023-05-23T04:30:07;96604.44;;;22.92;53.72
21185;BME280;18176;49.502;11.754;2023-05-23T04:34:11;96602.53;;;23.19;53.17
21185;BME280;18176;49.502;11.754;2023-05-23T04:38:12;96603.38;;;23.36;53.12
21185;BME280;18176;49.502;11.754;2023-05-23T04:42:16;96599.84;;;23.19;53.65
21185;BME280;18176;49.502;11.754;2023-05-23T04:46:48;96581.88;;;22.97;54.07
21185;BME280;18176;49.502;11.754;2023-05-23T04:50:52;96597.28;;;22.96;54.21
21185;BME280;18176;49.502;11.754;2023-05-23T04:54:54;96611.13;;;23.03;54.41
21185;BME280;18176;49.502;11.754;2023-05-23T04:58:57;96612.72;;;23.22;53.81
21185;BME280;18176;49.502;11.754;2023-05-23T05:02:59;96621.00;;;23.17;54.04
21185;BME280;18176;49.502;11.754;2023-05-23T05:07:00;96618.16;;;23.56;53.50
21185;BME280;18176;49.502;11.754;2023-05-23T05:11:01;96631.81;;;23.68;52.93
21185;BME280;18176;49.502;11.754;2023-05-23T05:15:07;96616.22;;;23.82;52.83
21185;BME280;18176;49.502;11.754;2023-05-23T05:19:08;96629.44;;;23.66;52.95
21185;BME280;18176;49.502;11.754;2023-05-23T05:23:09;96627.59;;;24.13;51.46
21185;BME280;18176;49.502;11.754;2023-05-23T05:27:10;96620.19;;;23.85;52.31
21185;BME280;18176;49.502;11.754;2023-05-23T05:31:13;96640.34;;;24.21;51.52
21185;BME280;18176;49.502;11.754;2023-05-23T05:35:16;96641.84;;;24.39;51.51
21185;BME280;18176;49.502;11.754;2023-05-23T05:39:16;96640.84;;;25.11;49.67
21185;BME280;18176;49.502;11.754;2023-05-23T05:43:17;96644.81;;;24.93;49.64
21185;BME280;18176;49.502;11.754;2023-05-23T05:47:21;96639.25;;;25.10;49.58
21185;BME280;18176;49.502;11.754;2023-05-23T05:51:22;96637.69;;;25.30;49.35
21185;BME280;18176;49.502;11.754;2023-05-23T05:55:23;96644.03;;;25.13;49.44
21185;BME280;18176;49.502;11.754;2023-05-23T05:59:24;96636.69;;;24.84;50.26
21185;BME280;18176;49.502;11.754;2023-05-23T06:03:31;96635.28;;;25.28;49.65
21185;BME280;18176;49.502;11.754;2023-05-23T06:07:33;96638.25;;;25.35;48.77
21185;BME280;18176;49.502;11.754;2023-05-23T06:11:35;96633.31;;;25.91;47.82
21185;BME280;18176;49.502;11.754;2023-05-23T06:15:37;96624.69;;;25.35;48.56
21185;BME280;18176;49.502;11.754;2023-05-23T06:19:40;96624.97;;;25.22;48.83
21185;BME280;18176;49.502;11.754;2023-05-23T06:23:41;96648.81;;;25.57;48.40
21185;BME280;18176;49.502;11.754;2023-05-23T06:27:42;96655.69;;;25.34;48.69
21185;BME280;18176;49.502;11.754;2023-05-23T06:31:42;96651.19;;;25.59;48.29
21185;BME280;18176;49.502;11.754;2023-05-23T06:35:45;96658.72;;;25.53;48.61
21185;BME280;18176;49.502;11.754;2023-05-23T06:39:45;96670.06;;;25.05;49.62
21185;BME280;18176;49.502;11.754;2023-05-23T06:43:46;96665.31;;;24.65;51.08
21185;BME280;18176;49.502;11.754;2023-05-23T06:47:55;96669.09;;;24.81;51.14
21185;BME280;18176;49.502;11.754;2023-05-23T06:52:00;96669.94;;;25.02;50.82
21185;BME280;18176;49.502;11.754;2023-05-23T06:56:00;96673.19;;;25.16;50.16
21185;BME280;18176;49.502;11.754;2023-05-23T07:00:08;96674.84;;;25.29;49.61
21185;BME280;18176;49.502;11.754;2023-05-23T07:04:23;96679.41;;;25.37;49.46
21185;BME280;18176;49.502;11.754;2023-05-23T07:08:29;96676.31;;;25.89;49.17
21185;BME280;18176;49.502;11.754;2023-05-23T07:12:31;96676.47;;;25.71;48.73
21185;BME280;18176;49.502;11.754;2023-05-23T07:16:31;96680.56;;;25.77;48.31
21185;BME280;18176;49.502;11.754;2023-05-23T07:20:35;96694.19;;;25.90;48.71
21185;BME280;18176;49.502;11.754;2023-05-23T07:24:51;96697.78;;;26.47;46.91
21185;BME280;18176;49.502;11.754;2023-05-23T07:28:56;96691.97;;;26.81;46.33
21185;BME280;18176;49.502;11.754;2023-05-23T07:32:56;96701.03;;;26.97;45.58
21185;BME280;18176;49.502;11.754;2023-05-23T07:36:57;96697.28;;;27.02;45.13
21185;BME280;18176;49.502;11.754;2023-05-23T07:41:07;96685.34;;;27.43;44.68
21185;BME280;18176;49.502;11.754;2023-05-23T07:45:11;96700.75;;;27.51;44.28
21185;BME280;18176;49.502;11.754;2023-05-23T07:49:12;96701.78;;;27.46;44.63
21185;BME280;18176;49.502;11.754;2023-05-23T07:53:13;96702.59;;;26.98;44.10
21185;BME280;18176;49.502;11.754;2023-05-23T07:57:16;96708.03;;;27.35;43.72
21185;BME280;18176;49.502;11.754;2023-05-23T08:01:20;96703.91;;;27.93;42.75
21185;BME280;18176;49.502;11.754;2023-05-23T08:05:33;96711.97;;;28.44;40.84
21185;BME280;18176;49.502;11.754;2023-05-23T08:09:34;96709.81;;;29.28;39.70
21185;BME280;18176;49.502;11.754;2023-05-23T08:13:38;96703.13;;;30.18;37.98
21185;BME280;18176;49.502;11.754;2023-05-23T08:17:57;96710.91;;;29.97;38.38
21185;BME280;18176;49.502;11.754;2023-05-23T08:21:58;96708.16;;;30.35;37.71
21185;BME280;18176;49.502;11.754;2023-05-23T08:25:58;96704.41;;;30.43;37.07
21185;BME280;18176;49.502;11.754;2023-05-23T08:30:04;96725.00;;;29.79;37.93
21185;BME280;18176;49.502;11.754;2023-05-23T08:34:06;96715.53;;;28.61;39.54
21185;BME280;18176;49.502;11.754;2023-05-23T08:38:09;96737.94;;;27.59;41.47
21185;BME280;18176;49.502;11.754;2023-05-23T08:42:21;96731.34;;;27.72;42.53
21185;BME280;18176;49.502;11.754;2023-05-23T08:46:26;96722.13;;;29.22;39.90
21185;BME280;18176;49.502;11.754;2023-05-23T08:50:29;96718.97;;;29.90;37.68
21185;BME280;18176;49.502;11.754;2023-05-23T08:54:30;96738.50;;;29.22;38.67
21185;BME280;18176;49.502;11.754;2023-05-23T08:58:31;96749.06;;;29.39;38.82
21185;BME280;18176;49.502;11.754;2023-05-23T09:02:38;96749.25;;;27.61;41.40
21185;BME280;18176;49.502;11.754;2023-05-23T09:06:49;96749.06;;;27.94;40.35
21185;BME280;18176;49.502;11.754;2023-05-23T09:10:51;96765.63;;;27.49;41.34
21185;BME280;18176;49.502;11.754;2023-05-23T09:14:54;96775.16;;;27.19;41.60
21185;BME280;18176;49.502;11.754;2023-05-23T09:18:58;96782.84;;;27.53;41.17
21185;BME280;18176;49.502;11.754;2023-05-23T09:23:00;96778.03;;;26.89;42.22
21185;BME280;18176;49.502;11.754;2023-05-23T09:27:07;96780.53;;;26.82;41.99
21185;BME280;18176;49.502;11.754;2023-05-23T09:31:08;96759.53;;;26.59;42.12
21185;BME280;18176;49.502;11.754;2023-05-23T09:35:12;96764.91;;;26.79;40.85
21185;BME280;18176;49.502;11.754;2023-05-23T09:39:15;96781.19;;;28.00;39.95
21185;BME280;18176;49.502;11.754;2023-05-23T09:43:17;96754.34;;;28.42;38.82
21185;BME280;18176;49.502;11.754;2023-05-23T09:47:21;96778.38;;;29.77;37.25
21185;BME280;18176;49.502;11.754;2023-05-23T09:51:24;96784.53;;;30.66;35.10
21185;BME280;18176;49.502;11.754;2023-05-23T09:55:25;96779.81;;;30.44;35.65
21185;BME280;18176;49.502;11.754;2023-05-23T09:59:30;96761.16;;;30.30;35.23
21185;BME280;18176;49.502;11.754;2023-05-23T10:03:35;96779.94;;;28.96;37.30
21185;BME280;18176;49.502;11.754;2023-05-23T10:07:40;96761.91;;;28.92;37.77
21185;BME280;18176;49.502;11.754;2023-05-23T10:12:38;96774.91;;;29.45;35.58
21185;BME280;18176;49.502;11.754;2023-05-23T10:16:52;96760.69;;;30.25;33.93
21185;BME280;18176;49.502;11.754;2023-05-23T10:21:01;96754.75;;;31.52;33.21
21185;BME280;18176;49.502;11.754;2023-05-23T10:25:09;96736.31;;;32.05;31.44
21185;BME280;18176;49.502;11.754;2023-05-23T10:29:09;96747.94;;;31.68;31.52
21185;BME280;18176;49.502;11.754;2023-05-23T10:33:13;96738.25;;;30.99;33.05
21185;BME280;18176;49.502;11.754;2023-05-23T10:37:23;96742.59;;;31.79;31.30
21185;BME280;18176;49.502;11.754;2023-05-23T10:41:38;96751.13;;;31.21;32.34
21185;BME280;18176;49.502;11.754;2023-05-23T10:45:42;96756.94;;;30.94;32.84
21185;BME280;18176;49.502;11.754;2023-05-23T10:49:51;96752.41;;;30.40;34.01
21185;BME280;18176;49.502;11.754;2023-05-23T10:53:53;96753.63;;;30.05;34.48
21185;BME280;18176;49.502;11.754;2023-05-23T10:58:15;96763.84;;;32.48;31.54
21185;BME280;18176;49.502;11.754;2023-05-23T11:02:21;96752.63;;;32.27;30.56
21185;BME280;18176;49.502;11.754;2023-05-23T11:06:36;96750.25;;;31.17;32.82
21185;BME280;18176;49.502;11.754;2023-05-23T11:10:54;96756.34;;;30.62;33.82
21185;BME280;18176;49.502;11.754;2023-05-23T11:14:57;96765.00;;;30.87;34.68
21185;BME280;18176;49.502;11.754;2023-05-23T11:19:25;96769.88;;;31.19;33.41
21185;BME280;18176;49.502;11.754;2023-05-23T11:23:39;96764.84;;;30.19;34.20
21185;BME280;18176;49.502;11.754;2023-05-23T11:27:40;96775.47;;;30.05;34.68
21185;BME280;18176;49.502;11.754;2023-05-23T11:31:44;96764.53;;;30.05;34.59
21185;BME280;18176;49.502;11.754;2023-05-23T11:35:46;96779.41;;;29.53;34.89
21185;BME280;18176;49.502;11.754;2023-05-23T11:39:48;96772.44;;;29.40;35.92
21185;BME280;18176;49.502;11.754;2023-05-23T11:43:49;96772.16;;;29.76;33.92
21185;BME280;18176;49.502;11.754;2023-05-23T11:47:53;96762.25;;;29.06;34.24
21185;BME280;18176;49.502;11.754;2023-05-23T11:51:54;96760.22;;;28.87;34.41
21185;BME280;18176;49.502;11.754;2023-05-23T11:55:57;96773.53;;;28.89;34.61
21185;BME280;18176;49.502;11.754;2023-05-23T11:59:58;96793.44;;;28.06;35.86
21185;BME280;18176;49.502;11.754;2023-05-23T12:04:09;96777.84;;;27.67;35.71
21185;BME280;18176;49.502;11.754;2023-05-23T12:08:12;96784.81;;;29.03;34.33
21185;BME280;18176;49.502;11.754;2023-05-23T12:12:14;96774.81;;;29.57;33.39
21185;BME280;18176;49.502;11.754;2023-05-23T12:16:17;96783.00;;;29.57;33.22
21185;BME280;18176;49.502;11.754;2023-05-23T12:20:20;96802.75;;;30.01;32.99
21185;BME280;18176;49.502;11.754;2023-05-23T12:24:22;96762.41;;;30.14;31.34
21185;BME280;18176;49.502;11.754;2023-05-23T12:28:36;96775.78;;;30.57;31.15
21185;BME280;18176;49.502;11.754;2023-05-23T12:32:39;96794.59;;;30.05;31.29
21185;BME280;18176;49.502;11.754;2023-05-23T12:36:43;96788.84;;;28.22;34.05
21185;BME280;18176;49.502;11.754;2023-05-23T12:41:10;96812.53;;;27.82;35.00
21185;BME280;18176;49.502;11.754;2023-05-23T12:45:13;96823.41;;;28.06;35.49
21185;BME280;18176;49.502;11.754;2023-05-23T12:49:13;96814.78;;;28.04;35.37
21185;BME280;18176;49.502;11.754;2023-05-23T12:53:16;96820.78;;;29.08;33.88
21185;BME280;18176;49.502;11.754;2023-05-23T12:57:19;96813.81;;;28.80;32.23
21185;BME280;18176;49.502;11.754;2023-05-23T13:01:20;96819.72;;;28.97;31.99
21185;BME280;18176;49.502;11.754;2023-05-23T13:05:21;96814.44;;;28.06;33.50
21185;BME280;18176;49.502;11.754;2023-05-23T13:09:24;96813.31;;;28.34;33.72
21185;BME280;18176;49.502;11.754;2023-05-23T13:13:25;96775.94;;;28.35;33.96
21185;BME280;18176;49.502;11.754;2023-05-23T13:17:26;96816.63;;;28.28;33.78
21185;BME280;18176;49.502;11.754;2023-05-23T13:21:26;96813.22;;;27.31;35.63
21185;BME280;18176;49.502;11.754;2023-05-23T13:25:30;96838.38;;;27.15;36.30
21185;BME280;18176;49.502;11.754;2023-05-23T13:29:31;96815.25;;;26.97;36.23
21185;BME280;18176;49.502;11.754;2023-05-23T13:33:31;96831.63;;;26.77;36.65
21185;BME280;18176;49.502;11.754;2023-05-23T13:37:32;96824.97;;;26.98;36.57
21185;BME280;18176;49.502;11.754;2023-05-23T13:41:35;96831.72;;;27.25;36.01
21185;BME280;18176;49.502;11.754;2023-05-23T13:45:36;96828.22;;;27.61;35.34
21185;BME280;18176;49.502;11.754;2023-05-23T13:49:37;96830.94;;;27.61;35.02
21185;BME280;18176;49.502;11.754;2023-05-23T13:53:37;96830.13;;;28.36;34.66
21185;BME280;18176;49.502;11.754;2023-05-23T13:57:41;96827.31;;;28.61;34.10
21185;BME280;18176;49.502;11.754;2023-05-23T14:01:41;96820.63;;;28.18;34.96
21185;BME280;18176;49.502;11.754;2023-05-23T14:05:42;96832.09;;;28.51;34.24
21185;BME280;18176;49.502;11.754;2023-05-23T14:09:42;96833.31;;;27.50;35.53
21185;BME280;18176;49.502;11.754;2023-05-23T14:13:45;96836.41;;;27.49;36.18
21185;BME280;18176;49.502;11.754;2023-05-23T14:17:46;96821.03;;;28.32;34.60
21185;BME280;18176;49.502;11.754;2023-05-23T14:21:51;96831.97;;;28.60;33.61
21185;BME280;18176;49.502;11.754;2023-05-23T14:25:52;96834.03;;;29.38;33.47
21185;BME280;18176;49.502;11.754;2023-05-23T14:29:55;96829.25;;;29.50;33.00
21185;BME280;18176;49.502;11.754;2023-05-23T14:33:56;96826.19;;;29.36;32.93
21185;BME280;18176;49.502;11.754;2023-05-23T14:37:57;96835.63;;;28.80;33.83
21185;BME280;18176;49.502;11.754;2023-05-23T14:41:57;96830.16;;;28.24;35.24
21185;BME280;18176;49.502;11.754;2023-05-23T14:46:01;96842.75;;;28.57;34.62
21185;BME280;18176;49.502;11.754;2023-05-23T14:50:01;96836.22;;;29.32;33.60
21185;BME280;18176;49.502;11.754;2023-05-23T14:54:02;96830.91;;;29.08;33.33
21185;BME280;18176;49.502;11.754;2023-05-23T14:58:03;96836.81;;;28.67;34.43
21185;BME280;18176;49.502;11.754;2023-05-23T15:02:06;96845.50;;;28.17;35.45
21185;BME280;18176;49.502;11.754;2023-05-23T15:06:06;96834.81;;;27.72;36.47
21185;BME280;18176;49.502;11.754;2023-05-23T15:10:08;96848.38;;;28.08;36.00
21185;BME280;18176;49.502;11.754;2023-05-23T15:14:08;96848.63;;;28.71;35.24
21185;BME280;18176;49.502;11.754;2023-05-23T15:18:11;96862.22;;;29.26;33.48
21185;BME280;18176;49.502;11.754;2023-05-23T15:22:28;96845.09;;;29.45;33.87
21185;BME280;18176;49.502;11.754;2023-05-23T15:26:32;96842.38;;;30.11;33.06
21185;BME280;18176;49.502;11.754;2023-05-23T15:30:32;96850.41;;;29.53;33.91
21185;BME280;18176;49.502;11.754;2023-05-23T15:34:36;96828.25;;;28.52;34.85
21185;BME280;18176;49.502;11.754;2023-05-23T15:38:36;96858.63;;;27.99;35.65
21185;BME280;18176;49.502;11.754;2023-05-23T15:42:37;96855.28;;;27.81;36.37
21185;BME280;18176;49.502;11.754;2023-05-23T15:46:38;96855.16;;;27.17;36.88
21185;BME280;18176;49.502;11.754;2023-05-23T15:50:41;96864.66;;;26.46;38.13
21185;BME280;18176;49.502;11.754;2023-05-23T15:54:42;96859.72;;;26.60;38.77
21185;BME280;18176;49.502;11.754;2023-05-23T15:58:42;96871.97;;;26.33;38.89
21185;BME280;18176;49.502;11.754;2023-05-23T16:02:43;96872.25;;;26.20;39.32
21185;BME280;18176;49.502;11.754;2023-05-23T16:06:46;96879.34;;;26.04;39.92
21185;BME280;18176;49.502;11.754;2023-05-23T16:10:46;96874.31;;;25.64;40.52
21185;BME280;18176;49.502;11.754;2023-05-23T16:14:46;96895.28;;;25.55;40.58
21185;BME280;18176;49.502;11.754;2023-05-23T16:18:47;96897.25;;;25.46;41.44
21185;BME280;18176;49.502;11.754;2023-05-23T16:22:51;96886.97;;;25.14;41.75
21185;BME280;18176;49.502;11.754;2023-05-23T16:26:52;96878.31;;;25.12;41.83
21185;BME280;18176;49.502;11.754;2023-05-23T16:30:55;96890.53;;;24.55;42.77
21185;BME280;18176;49.502;11.754;2023-05-23T16:34:55;96890.06;;;24.70;43.03
21185;BME280;18176;49.502;11.754;2023-05-23T16:38:58;96906.78;;;24.46;43.30
21185;BME280;18176;49.502;11.754;2023-05-23T16:42:59;96891.66;;;24.36;43.68
21185;BME280;18176;49.502;11.754;2023-05-23T16:47:00;96900.88;;;24.53;43.41
21185;BME280;18176;49.502;11.754;2023-05-23T16:51:00;96898.19;;;24.70;43.19
21185;BME280;18176;49.502;11.754;2023-05-23T16:55:05;96895.25;;;25.00;42.57
21185;BME280;18176;49.502;11.754;2023-05-23T16:59:06;96892.09;;;25.07;42.28
21185;BME280;18176;49.502;11.754;2023-05-23T17:03:06;96868.31;;;25.04;42.44
21185;BME280;18176;49.502;11.754;2023-05-23T17:07:07;96884.25;;;25.14;42.13
21185;BME280;18176;49.502;11.754;2023-05-23T17:11:10;96900.19;;;25.62;41.46
21185;BME280;18176;49.502;11.754;2023-05-23T17:15:11;96894.09;;;25.27;41.52
21185;BME280;18176;49.502;11.754;2023-05-23T17:19:12;96899.97;;;25.29;41.95
21185;BME280;18176;49.502;11.754;2023-05-23T17:23:12;96911.00;;;25.24;42.26
21185;BME280;18176;49.502;11.754;2023-05-23T17:27:15;96914.59;;;24.48;43.28
21185;BME280;18176;49.502;11.754;2023-05-23T17:31:16;96921.44;;;24.28;44.18
21185;BME280;18176;49.502;11.754;2023-05-23T17:35:16;96917.78;;;24.67;43.43
21185;BME280;18176;49.502;11.754;2023-05-23T17:39:17;96925.75;;;24.37;43.71
21185;BME280;18176;49.502;11.754;2023-05-23T17:43:21;96937.53;;;24.24;44.01
21185;BME280;18176;49.502;11.754;2023-05-23T17:47:21;96841.47;;;23.40;44.85
21185;BME280;18176;49.502;11.754;2023-05-23T17:51:22;96936.44;;;23.69;45.21
21185;BME280;18176;49.502;11.754;2023-05-23T17:55:22;96939.81;;;23.44;45.95
21185;BME280;18176;49.502;11.754;2023-05-23T17:59:26;96937.63;;;23.46;45.88
21185;BME280;18176;49.502;11.754;2023-05-23T18:03:28;96957.03;;;23.48;46.28
21185;BME280;18176;49.502;11.754;2023-05-23T18:07:29;96939.03;;;23.43;45.93
21185;BME280;18176;49.502;11.754;2023-05-23T18:11:30;96949.91;;;23.30;46.76
21185;BME280;18176;49.502;11.754;2023-05-23T18:15:33;96943.47;;;23.17;47.10
21185;BME280;18176;49.502;11.754;2023-05-23T18:19:35;96967.28;;;23.07;47.70
21185;BME280;18176;49.502;11.754;2023-05-23T18:23:35;96963.22;;;22.73;48.47
21185;BME280;18176;49.502;11.754;2023-05-23T18:27:36;96974.16;;;22.90;48.88
21185;BME280;18176;49.502;11.754;2023-05-23T18:31:39;96970.50;;;22.37;50.48
21185;BME280;18176;49.502;11.754;2023-05-23T18:35:39;96972.81;;;22.30;50.57
21185;BME280;18176;49.502;11.754;2023-05-23T18:39:40;96988.72;;;22.18;51.58
21185;BME280;18176;49.502;11.754;2023-05-23T18:43:41;97003.22;;;22.22;51.82
21185;BME280;18176;49.502;11.754;2023-05-23T18:47:44;97016.72;;;22.22;52.04
21185;BME280;18176;49.502;11.754;2023-05-23T18:51:45;96985.63;;;22.11;51.95
21185;BME280;18176;49.502;11.754;2023-05-23T18:55:48;96988.56;;;22.01;51.88
21185;BME280;18176;49.502;11.754;2023-05-23T18:59:49;97005.53;;;21.88;51.57
21185;BME280;18176;49.502;11.754;2023-05-23T19:03:52;97006.50;;;21.78;51.56
21185;BME280;18176;49.502;11.754;2023-05-23T19:07:53;97030.88;;;21.59;51.95
21185;BME280;18176;49.502;11.754;2023-05-23T19:11:54;97028.97;;;21.74;51.18
21185;BME280;18176;49.502;11.754;2023-05-23T19:15:57;97025.19;;;21.61;51.24
21185;BME280;18176;49.502;11.754;2023-05-23T19:20:01;97017.41;;;21.59;51.53
21185;BME280;18176;49.502;11.754;2023-05-23T19:24:02;97039.06;;;21.54;51.54
21185;BME280;18176;49.502;11.754;2023-05-23T19:28:03;97042.25;;;21.70;50.42
21185;BME280;18176;49.502;11.754;2023-05-23T19:32:05;97028.03;;;21.51;50.62
21185;BME280;18176;49.502;11.754;2023-05-23T19:36:08;97059.94;;;21.30;51.26
21185;BME280;18176;49.502;11.754;2023-05-23T19:40:10;97060.28;;;21.10;51.52
21185;BME280;18176;49.502;11.754;2023-05-23T19:44:11;97072.06;;;21.46;51.10
21185;BME280;18176;49.502;11.754;2023-05-23T19:48:11;97061.56;;;21.31;50.79
21185;BME280;18176;49.502;11.754;2023-05-23T19:52:15;97089.16;;;21.55;50.58
21185;BME280;18176;49.502;11.754;2023-05-23T19:56:15;97083.44;;;21.76;49.93
21185;BME280;18176;49.502;11.754;2023-05-23T20:00:16;97093.63;;;21.79;49.91
21185;BME280;18176;49.502;11.754;2023-05-23T20:04:17;97089.59;;;21.62;49.93
21185;BME280;18176;49.502;11.754;2023-05-23T20:08:23;97084.69;;;21.32;50.14
21185;BME280;18176;49.502;11.754;2023-05-23T20:12:24;97076.97;;;21.44;50.02
21185;BME280;18176;49.502;11.754;2023-05-23T20:16:25;97092.97;;;21.54;50.24
21185;BME280;18176;49.502;11.754;2023-05-23T20:20:26;97119.00;;;21.78;49.29
21185;BME280;18176;49.502;11.754;2023-05-23T20:24:29;97114.50;;;21.73;49.58
21185;BME280;18176;49.502;11.754;2023-05-23T20:28:30;97095.94;;;21.53;49.10
21185;BME280;18176;49.502;11.754;2023-05-23T20:32:30;97108.97;;;21.64;49.12
21185;BME280;18176;49.502;11.754;2023-05-23T20:36:31;97098.53;;;21.44;48.95
21185;BME280;18176;49.502;11.754;2023-05-23T20:40:34;97132.94;;;21.52;49.18
21185;BME280;18176;49.502;11.754;2023-05-23T20:44:35;97127.69;;;21.42;49.17
21185;BME280;18176;49.502;11.754;2023-05-23T20:48:36;97134.91;;;21.28;49.87
21185;BME280;18176;49.502;11.754;2023-05-23T20:52:37;97115.53;;;21.08;50.34
21185;BME280;18176;49.502;11.754;2023-05-23T20:56:42;97075.84;;;20.76;50.23
21185;BME280;18176;49.502;11.754;2023-05-23T21:00:43;97142.84;;;21.38;50.25
21185;BME280;18176;49.502;11.754;2023-05-23T21:04:44;97104.63;;;20.57;50.99
21185;BME280;18176;49.502;11.754;2023-05-23T21:08:44;97152.00;;;21.00;50.96
21185;BME280;18176;49.502;11.754;2023-05-23T21:12:47;97127.94;;;20.66;51.83
21185;BME280;18176;49.502;11.754;2023-05-23T21:16:48;97154.47;;;20.78;52.72